createdAt,value
2022-08-17T00:00:15.776Z,100769.19
2022-08-17T00:03:17.754Z,100765.69
2022-08-17T00:05:54.803Z,100756.66
2022-08-17T00:08:25.216Z,100764.38
2022-08-17T00:10:53.827Z,100753.25
2022-08-17T00:13:25.713Z,100754.38
2022-08-17T00:15:56.011Z,100755.41
2022-08-17T00:19:06.511Z,100738.50
2022-08-17T00:21:11.764Z,100743.50
2022-08-17T00:23:47.822Z,100749.06
2022-08-17T00:26:16.650Z,100735.13
2022-08-17T00:29:03.426Z,100738.31
2022-08-17T00:31:30.162Z,100724.69
2022-08-17T00:33:56.878Z,100733.50
2022-08-17T00:36:24.220Z,100736.09
2022-08-17T00:38:51.476Z,100735.97
2022-08-17T00:41:24.909Z,100737.09
2022-08-17T00:43:58.403Z,100740.06
2022-08-17T00:46:32.804Z,100728.97
2022-08-17T00:49:00.138Z,100727.13
2022-08-17T00:51:35.470Z,100725.22
2022-08-17T00:54:20.655Z,100724.56
2022-08-17T00:57:09.634Z,100708.00
2022-08-17T00:59:47.191Z,100719.00
2022-08-17T01:02:40.462Z,100717.31
2022-08-17T01:05:18.661Z,100726.00
2022-08-17T01:07:47.915Z,100723.97
2022-08-17T01:10:58.995Z,100718.75
2022-08-17T01:13:04.201Z,100719.19
2022-08-17T01:15:34.973Z,100714.91
2022-08-17T01:18:01.982Z,100712.03
2022-08-17T01:20:29.602Z,100711.06
2022-08-17T01:22:57.010Z,100706.50
2022-08-17T01:25:24.399Z,100709.25
2022-08-17T01:27:52.221Z,100699.91
2022-08-17T01:30:57.342Z,100708.50
2022-08-17T01:33:05.902Z,100698.94
2022-08-17T01:35:32.627Z,100706.81
2022-08-17T01:37:59.295Z,100701.19
2022-08-17T01:40:35.361Z,100706.25
2022-08-17T01:43:11.949Z,100709.16
2022-08-17T01:45:46.090Z,100708.31
2022-08-17T01:48:13.497Z,100706.50
2022-08-17T01:50:43.008Z,100711.22
2022-08-17T01:53:15.700Z,100715.22
2022-08-17T01:55:55.643Z,100705.66
2022-08-17T01:58:22.591Z,100708.03
2022-08-17T02:01:00.008Z,100706.56
2022-08-17T02:03:29.483Z,100708.25
2022-08-17T02:05:57.042Z,100704.66
2022-08-17T02:08:37.162Z,100707.91
2022-08-17T02:11:14.725Z,100708.50
2022-08-17T02:13:42.127Z,100706.25
2022-08-17T02:16:09.092Z,100699.03
2022-08-17T02:18:35.900Z,100693.47
2022-08-17T02:21:05.864Z,100696.88
2022-08-17T02:23:38.243Z,100702.56
2022-08-17T02:26:05.303Z,100695.66
2022-08-17T02:28:31.961Z,100697.50
2022-08-17T02:31:05.978Z,100698.63
2022-08-17T02:33:42.070Z,100703.44
2022-08-17T02:36:12.624Z,100694.47
2022-08-17T02:38:40.844Z,100691.31
2022-08-17T02:41:08.836Z,100698.47
2022-08-17T02:43:35.811Z,100690.81
2022-08-17T02:46:02.556Z,100694.28
2022-08-17T02:48:31.629Z,100689.25
2022-08-17T02:50:59.890Z,100688.41
2022-08-17T02:53:27.164Z,100688.91
2022-08-17T02:55:54.055Z,100681.69
2022-08-17T02:58:32.080Z,100686.72
2022-08-17T03:01:04.711Z,100666.34
2022-08-17T03:03:31.811Z,100679.44
2022-08-17T03:05:59.024Z,100670.22
2022-08-17T03:08:25.765Z,100675.00
2022-08-17T03:10:52.903Z,100672.19
2022-08-17T03:13:20.068Z,100670.69
2022-08-17T03:15:48.332Z,100670.13
2022-08-17T03:18:24.703Z,100681.59
2022-08-17T03:20:58.519Z,100681.03
2022-08-17T03:23:27.337Z,100690.75
2022-08-17T03:25:55.046Z,100696.38
2022-08-17T03:28:23.780Z,100712.19
2022-08-17T03:30:51.558Z,100708.81
2022-08-17T03:33:20.793Z,100713.13
2022-08-17T03:35:48.460Z,100708.94
2022-08-17T03:38:17.096Z,100712.66
2022-08-17T03:40:56.729Z,100716.69
2022-08-17T03:43:26.115Z,100724.38
2022-08-17T03:46:27.752Z,100724.75
2022-08-17T03:49:16.976Z,100728.53
2022-08-17T03:52:02.218Z,100731.59
2022-08-17T03:54:47.563Z,100731.03
2022-08-17T03:57:14.370Z,100733.06
2022-08-17T03:59:41.170Z,100741.56
2022-08-17T04:02:18.913Z,100746.00
2022-08-17T04:04:45.676Z,100747.53
2022-08-17T04:07:12.686Z,100751.31
2022-08-17T04:09:39.409Z,100749.19
2022-08-17T04:12:06.286Z,100753.13
2022-08-17T04:14:37.867Z,100745.59
2022-08-17T04:17:26.260Z,100739.41
2022-08-17T04:19:54.202Z,100739.59
2022-08-17T04:22:31.850Z,100746.16
2022-08-17T04:25:08.345Z,100753.22
2022-08-17T04:27:35.393Z,100760.03
2022-08-17T04:30:02.422Z,100755.13
2022-08-17T04:33:00.560Z,100751.75
2022-08-17T04:35:23.853Z,100759.31
2022-08-17T04:37:51.809Z,100774.25
2022-08-17T04:40:38.776Z,100783.84
2022-08-17T04:43:19.323Z,100769.81
2022-08-17T04:45:58.367Z,100779.28
2022-08-17T04:48:34.807Z,100781.25
2022-08-17T04:51:07.302Z,100766.59
2022-08-17T04:53:34.344Z,100777.28
2022-08-17T04:56:01.331Z,100779.53
2022-08-17T04:58:28.117Z,100773.88
2022-08-17T05:00:54.865Z,100783.34
2022-08-17T05:03:21.763Z,100781.97
2022-08-17T05:05:49.919Z,100782.44
2022-08-17T05:08:21.141Z,100777.72
2022-08-17T05:10:48.543Z,100787.66
2022-08-17T05:13:19.151Z,100787.66
2022-08-17T05:15:49.040Z,100800.66
2022-08-17T05:18:17.459Z,100792.97
2022-08-17T05:20:44.983Z,100787.31
2022-08-17T05:23:14.786Z,100782.16
2022-08-17T05:25:47.447Z,100782.50
2022-08-17T05:28:16.791Z,100779.00
2022-08-17T05:30:46.351Z,100764.75
2022-08-17T05:33:25.204Z,100765.28
2022-08-17T05:35:55.520Z,100768.63
2022-08-17T05:38:24.533Z,100766.13
2022-08-17T05:40:52.530Z,100763.97
2022-08-17T05:43:22.348Z,100759.09
2022-08-17T05:45:59.820Z,100762.94
2022-08-17T05:48:35.636Z,100761.16
2022-08-17T05:51:25.970Z,100773.13
2022-08-17T05:54:30.377Z,100768.66
2022-08-17T05:57:20.935Z,100774.50
2022-08-17T06:00:06.450Z,100785.56
2022-08-17T06:02:58.979Z,100787.34
2022-08-17T06:05:51.438Z,100790.56
2022-08-17T06:08:34.267Z,100787.81
2022-08-17T06:11:13.705Z,100797.94
2022-08-17T06:13:46.411Z,100794.34
2022-08-17T06:16:33.247Z,100791.94
2022-08-17T06:19:10.546Z,100781.25
2022-08-17T06:21:42.491Z,100786.88
2022-08-17T06:24:31.016Z,100788.94
2022-08-17T06:27:13.879Z,100790.38
2022-08-17T06:30:02.080Z,100804.16
2022-08-17T06:32:29.355Z,100795.22
2022-08-17T06:34:57.473Z,100807.75
2022-08-17T06:37:59.463Z,100809.84
2022-08-17T06:40:45.528Z,100808.31
2022-08-17T06:43:54.639Z,100808.56
2022-08-17T06:46:36.288Z,100810.81
2022-08-17T06:49:14.040Z,100811.56
2022-08-17T06:52:09.729Z,100815.66
2022-08-17T06:54:55.572Z,100826.34
2022-08-17T06:57:28.314Z,100836.53
2022-08-17T07:00:08.391Z,100847.44
2022-08-17T07:02:51.178Z,100842.22
2022-08-17T07:05:25.366Z,100841.81
2022-08-17T07:08:22.102Z,100841.91
2022-08-17T07:10:56.443Z,100839.13
2022-08-17T07:13:26.061Z,100846.56
2022-08-17T07:15:59.065Z,100835.88
2022-08-17T07:18:29.700Z,100841.63
2022-08-17T07:21:06.043Z,100835.88
2022-08-17T07:23:46.485Z,100846.06
2022-08-17T07:26:13.512Z,100853.06
2022-08-17T07:28:40.280Z,100857.72
2022-08-17T07:31:08.223Z,100859.25
2022-08-17T07:33:36.901Z,100859.66
2022-08-17T07:36:04.044Z,100865.19
2022-08-17T07:38:35.528Z,100870.69
2022-08-17T07:41:06.924Z,100878.97
2022-08-17T07:43:39.685Z,100878.41
2022-08-17T07:46:34.349Z,100879.47
2022-08-17T07:49:03.102Z,100871.56
2022-08-17T07:51:39.446Z,100875.41
2022-08-17T07:54:15.528Z,100872.06
2022-08-17T07:56:48.820Z,100863.56
2022-08-17T07:59:24.124Z,100869.47
2022-08-17T08:02:19.182Z,100870.06
2022-08-17T08:05:06.645Z,100875.72
2022-08-17T08:07:54.268Z,100879.41
2022-08-17T08:11:05.323Z,100883.88
2022-08-17T08:13:32.766Z,100876.59
2022-08-17T08:16:22.646Z,100873.41
2022-08-17T08:18:57.179Z,100868.56
2022-08-17T08:21:33.114Z,100880.78
2022-08-17T08:24:06.069Z,100878.06
2022-08-17T08:27:02.632Z,100877.22
2022-08-17T08:29:55.282Z,100878.59
2022-08-17T08:32:57.517Z,100871.94
2022-08-17T08:35:31.532Z,100867.31
2022-08-17T08:38:23.545Z,100869.69
2022-08-17T08:41:14.416Z,100875.94
2022-08-17T08:44:03.752Z,100876.16
2022-08-17T08:46:45.284Z,100872.44
2022-08-17T08:50:02.206Z,100864.59
2022-08-17T08:52:42.732Z,100869.81
2022-08-17T08:55:10.334Z,100868.00
2022-08-17T08:57:47.484Z,100865.81
2022-08-17T09:00:22.941Z,100858.78
2022-08-17T09:03:11.192Z,100872.09
2022-08-17T09:05:52.792Z,100878.53
2022-08-17T09:08:44.484Z,100886.06
2022-08-17T09:11:23.313Z,100893.88
2022-08-17T09:14:04.623Z,100892.66
2022-08-17T09:17:03.159Z,100897.94
2022-08-17T09:19:35.980Z,100896.78
2022-08-17T09:22:37.026Z,100899.09
2022-08-17T09:25:22.078Z,100901.22
2022-08-17T09:28:08.404Z,100914.72
2022-08-17T09:30:44.009Z,100917.13
2022-08-17T09:33:14.669Z,100915.31
2022-08-17T09:36:12.469Z,100919.56
2022-08-17T09:39:11.093Z,100926.69
2022-08-17T09:42:27.354Z,100922.47
2022-08-17T09:45:03.162Z,100912.53
2022-08-17T09:47:37.078Z,100913.16
2022-08-17T09:50:11.555Z,100908.34
2022-08-17T09:52:38.415Z,100912.34
2022-08-17T09:55:06.115Z,100913.59
2022-08-17T09:57:43.494Z,100936.16
2022-08-17T10:00:34.618Z,100940.03
2022-08-17T10:03:48.988Z,100957.53
2022-08-17T10:06:24.899Z,100954.31
2022-08-17T10:09:09.770Z,100962.19
2022-08-17T10:12:18.997Z,100957.00
2022-08-17T10:15:19.502Z,100948.91
2022-08-17T10:18:23.039Z,100954.84
2022-08-17T10:21:29.752Z,100969.84
2022-08-17T10:24:33.003Z,100946.13
2022-08-17T10:27:03.034Z,100945.22
2022-08-17T10:29:51.788Z,100941.00
2022-08-17T10:32:40.813Z,100946.66
2022-08-17T10:35:16.666Z,100949.63
2022-08-17T10:38:21.581Z,100947.75
2022-08-17T10:41:05.288Z,100955.09
2022-08-17T10:43:57.908Z,100949.56
2022-08-17T10:47:08.650Z,100949.19
2022-08-17T10:49:38.308Z,100947.34
2022-08-17T10:52:20.568Z,100943.72
2022-08-17T10:54:58.053Z,100955.88
2022-08-17T10:57:36.978Z,100946.97
2022-08-17T11:00:15.781Z,100952.59
2022-08-17T11:02:51.512Z,100947.28
2022-08-17T11:05:33.003Z,100949.84
2022-08-17T11:08:01.639Z,100947.44
2022-08-17T11:10:59.448Z,100943.19
2022-08-17T11:13:43.372Z,100944.25
2022-08-17T11:16:37.906Z,100928.50
2022-08-17T11:19:28.050Z,100928.31
2022-08-17T11:22:24.122Z,100915.84
2022-08-17T11:24:53.847Z,100901.72
2022-08-17T11:27:23.592Z,100909.50
2022-08-17T11:30:01.414Z,100901.72
2022-08-17T11:32:54.428Z,100916.88
2022-08-17T11:35:21.518Z,100918.66
2022-08-17T11:38:17.720Z,100926.84
2022-08-17T11:41:03.301Z,100939.63
2022-08-17T11:44:07.765Z,100948.97
2022-08-17T11:46:56.516Z,100953.16
2022-08-17T11:50:02.185Z,100943.69
2022-08-17T11:52:41.378Z,100946.09
2022-08-17T11:55:40.729Z,100951.09
2022-08-17T11:58:31.335Z,100952.59
2022-08-17T12:01:07.165Z,100958.69
2022-08-17T12:04:19.186Z,100964.78
2022-08-17T12:06:52.279Z,100959.69
2022-08-17T12:09:21.473Z,100972.75
2022-08-17T12:12:12.126Z,100977.97
2022-08-17T12:17:40.532Z,100987.78
2022-08-17T12:20:14.694Z,100996.09
2022-08-17T12:23:12.461Z,101004.16
2022-08-17T12:25:47.700Z,101002.19
2022-08-17T12:28:32.693Z,100995.97
2022-08-17T12:31:04.707Z,101005.41
2022-08-17T12:33:35.802Z,101007.25
2022-08-17T12:36:07.535Z,101010.56
2022-08-17T12:38:37.095Z,101008.25
2022-08-17T12:41:26.027Z,100999.91
2022-08-17T12:44:05.563Z,101003.16
2022-08-17T12:46:46.710Z,101002.78
2022-08-17T12:49:35.619Z,100998.53
2022-08-17T12:52:13.606Z,101005.94
2022-08-17T12:55:00.911Z,101014.09
2022-08-17T12:57:39.878Z,101013.63
2022-08-17T13:00:22.046Z,101011.66
2022-08-17T13:02:59.832Z,101006.06
2022-08-17T13:05:36.580Z,101002.59
2022-08-17T13:08:32.546Z,101001.19
2022-08-17T13:11:03.218Z,100990.59
2022-08-17T13:13:33.798Z,100993.13
2022-08-17T13:16:09.741Z,100998.84
2022-08-17T13:18:39.061Z,101002.09
2022-08-17T13:21:12.062Z,100990.06
2022-08-17T13:23:39.020Z,100995.81
2022-08-17T13:26:16.154Z,100986.81
2022-08-17T13:28:50.064Z,100985.78
2022-08-17T13:31:21.596Z,100988.63
2022-08-17T13:33:50.067Z,100979.56
2022-08-17T13:36:33.911Z,100992.59
2022-08-17T13:39:22.918Z,100981.91
2022-08-17T13:41:53.920Z,100975.72
2022-08-17T13:44:33.439Z,100971.47
2022-08-17T13:47:01.380Z,100969.25
2022-08-17T13:49:48.325Z,100974.53
2022-08-17T13:52:39.219Z,100971.22
2022-08-17T13:55:16.691Z,100968.94
2022-08-17T13:58:03.559Z,100969.75
2022-08-17T14:00:36.467Z,100966.06
2022-08-17T14:03:05.198Z,100958.22
2022-08-17T14:05:32.538Z,100968.34
2022-08-17T14:08:06.761Z,100966.94
2022-08-17T14:10:36.463Z,100953.19
2022-08-17T14:13:04.096Z,100946.97
2022-08-17T14:15:54.809Z,100944.06
2022-08-17T14:18:55.228Z,100951.59
2022-08-17T14:21:09.196Z,100956.66
2022-08-17T14:23:37.056Z,100957.69
2022-08-17T14:26:04.426Z,100955.63
2022-08-17T14:28:31.090Z,100958.09
2022-08-17T14:31:00.775Z,100958.75
2022-08-17T14:33:28.655Z,100956.84
2022-08-17T14:35:57.616Z,100959.22
2022-08-17T14:38:24.699Z,100951.34
2022-08-17T14:40:52.100Z,100948.97
2022-08-17T14:43:22.920Z,100955.78
2022-08-17T14:45:49.849Z,100952.91
2022-08-17T14:48:16.490Z,100945.69
2022-08-17T14:50:43.765Z,100951.44
2022-08-17T14:53:13.712Z,100961.31
2022-08-17T14:55:40.874Z,100961.69
2022-08-17T14:58:08.742Z,100959.63
2022-08-17T15:00:39.576Z,100958.41
2022-08-17T15:03:06.642Z,100964.38
2022-08-17T15:05:36.594Z,100982.25
2022-08-17T15:08:05.485Z,100970.66
2022-08-17T15:10:32.843Z,100977.81
2022-08-17T15:13:00.384Z,100981.50
2022-08-17T15:15:28.319Z,100975.31
2022-08-17T15:18:23.236Z,100990.41
2022-08-17T15:21:03.329Z,100953.38
2022-08-17T15:23:42.723Z,100960.84
2022-08-17T15:26:25.698Z,100960.03
2022-08-17T15:28:56.154Z,100961.53
2022-08-17T15:31:31.728Z,100981.22
2022-08-17T15:33:59.645Z,100978.56
2022-08-17T15:36:26.512Z,100978.25
2022-08-17T15:38:53.319Z,100983.22
2022-08-17T15:41:20.262Z,100979.19
2022-08-17T15:43:49.986Z,100979.28
2022-08-17T15:46:22.411Z,100973.97
2022-08-17T15:48:52.006Z,100985.13
2022-08-17T15:51:25.150Z,100987.09
2022-08-17T15:53:58.065Z,100979.41
2022-08-17T15:56:26.328Z,100980.19
2022-08-17T15:58:55.114Z,100968.81
2022-08-17T16:02:20.011Z,100968.69
2022-08-17T16:04:29.920Z,100955.22
2022-08-17T16:06:57.540Z,100958.44
2022-08-17T16:09:24.268Z,100954.88
2022-08-17T16:11:52.181Z,100950.84
2022-08-17T16:14:22.384Z,100948.56
2022-08-17T16:16:50.905Z,100946.78
2022-08-17T16:19:17.774Z,100945.97
2022-08-17T16:21:44.380Z,100938.91
2022-08-17T16:24:13.269Z,100944.06
2022-08-17T16:26:42.020Z,100941.03
2022-08-17T16:29:09.171Z,100948.34
2022-08-17T16:31:37.759Z,100953.53
2022-08-17T16:34:16.813Z,100954.28
2022-08-17T16:36:55.636Z,100954.41
2022-08-17T16:39:29.192Z,100953.91
2022-08-17T16:41:57.574Z,100957.28
2022-08-17T16:44:27.498Z,100955.34
2022-08-17T16:46:54.444Z,100944.88
2022-08-17T16:49:35.773Z,100950.16
2022-08-17T16:52:06.900Z,100956.81
2022-08-17T16:54:37.713Z,100959.00
2022-08-17T16:57:06.928Z,100969.72
2022-08-17T16:59:41.062Z,100956.84
2022-08-17T17:02:15.357Z,100975.25
2022-08-17T17:05:29.947Z,100977.19
2022-08-17T17:08:26.808Z,100990.09
2022-08-17T17:10:55.905Z,100992.75
2022-08-17T17:13:40.894Z,100993.19
2022-08-17T17:16:26.511Z,100999.41
2022-08-17T17:19:08.622Z,101003.56
2022-08-17T17:21:49.186Z,101007.69
2022-08-17T17:24:31.473Z,100996.53
2022-08-17T17:27:35.725Z,101008.25
2022-08-17T17:30:10.301Z,101014.56
2022-08-17T17:32:49.434Z,101010.78
2022-08-17T17:35:40.376Z,101013.41
2022-08-17T17:38:17.669Z,101008.22
2022-08-17T17:40:47.872Z,101018.59
2022-08-17T17:43:37.565Z,101007.53
2022-08-17T17:46:28.381Z,101008.81
2022-08-17T17:48:59.895Z,101001.53
2022-08-17T17:52:07.745Z,101002.00
2022-08-17T17:54:44.255Z,101008.78
2022-08-17T17:57:24.674Z,100996.56
2022-08-17T18:00:03.570Z,101005.75
2022-08-17T18:02:57.575Z,100995.66
2022-08-17T18:05:39.436Z,100994.03
2022-08-17T18:08:34.979Z,100991.38
2022-08-17T18:11:14.561Z,100988.50
2022-08-17T18:14:28.854Z,100989.66
2022-08-17T18:17:02.197Z,100992.31
2022-08-17T18:19:37.764Z,100986.22
2022-08-17T18:22:12.978Z,100985.41
2022-08-17T18:24:44.075Z,100989.75
2022-08-17T18:27:38.093Z,100983.16
2022-08-17T18:30:11.005Z,100984.03
2022-08-17T18:33:03.364Z,100987.84
2022-08-17T18:35:36.630Z,100989.09
2022-08-17T18:38:30.031Z,100998.13
2022-08-17T18:41:01.866Z,100996.97
2022-08-17T18:43:53.011Z,100996.06
2022-08-17T18:46:40.469Z,100997.31
2022-08-17T18:49:30.642Z,100989.13
2022-08-17T18:52:11.977Z,100991.03
2022-08-17T18:54:38.973Z,101001.59
2022-08-17T18:57:08.399Z,101001.09
2022-08-17T18:59:40.493Z,101014.09
2022-08-17T19:02:28.283Z,101019.06
2022-08-17T19:05:27.179Z,101029.47
2022-08-17T19:08:31.036Z,101037.25
2022-08-17T19:11:06.969Z,101044.94
2022-08-17T19:14:00.915Z,101059.06
2022-08-17T19:16:43.471Z,101056.13
2022-08-17T19:19:35.975Z,101064.69
2022-08-17T19:22:29.299Z,101076.38
2022-08-17T19:25:16.949Z,101081.44
2022-08-17T19:28:21.738Z,101077.56
2022-08-17T19:30:57.959Z,101078.13
2022-08-17T19:33:26.340Z,101073.22
2022-08-17T19:36:22.006Z,101088.03
2022-08-17T19:38:53.115Z,101077.47
2022-08-17T19:41:33.315Z,101061.63
2022-08-17T19:44:41.502Z,101069.09
2022-08-17T19:47:30.459Z,101069.47
2022-08-17T19:50:42.806Z,101072.47
2022-08-17T19:54:04.272Z,101067.75
2022-08-17T19:56:58.966Z,101069.94
2022-08-17T19:59:49.529Z,101070.75
2022-08-17T20:02:39.654Z,101070.75
2022-08-17T20:05:20.764Z,101067.28
2022-08-17T20:08:16.715Z,101070.63
2022-08-17T20:10:53.615Z,101074.50
2022-08-17T20:13:46.701Z,101067.69
2022-08-17T20:16:13.554Z,101067.69
2022-08-17T20:18:53.005Z,101067.91
2022-08-17T20:21:26.746Z,101071.72
2022-08-17T20:23:56.305Z,101059.84
2022-08-17T20:26:55.417Z,101070.50
2022-08-17T20:29:29.564Z,101073.81
2022-08-17T20:32:47.725Z,101067.19
2022-08-17T20:35:33.026Z,101068.50
2022-08-17T20:38:26.453Z,101055.75
2022-08-17T20:40:57.581Z,101061.41
2022-08-17T20:43:45.160Z,101055.28
2022-08-17T20:46:49.737Z,101053.97
2022-08-17T20:49:45.154Z,101060.25
2022-08-17T20:52:54.451Z,101059.72
2022-08-17T20:55:52.608Z,101069.31
2022-08-17T20:58:23.343Z,101067.16
2022-08-17T21:00:56.146Z,101072.44
2022-08-17T21:03:23.549Z,101073.50
2022-08-17T21:06:00.417Z,101079.34
2022-08-17T21:08:30.857Z,101079.59
2022-08-17T21:11:05.415Z,101084.72
2022-08-17T21:13:37.535Z,101091.19
2022-08-17T21:16:26.277Z,101093.75
2022-08-17T21:19:16.953Z,101086.66
2022-08-17T21:22:09.887Z,101085.19
2022-08-17T21:24:56.546Z,101079.28
2022-08-17T21:27:46.672Z,101084.81
2022-08-17T21:30:23.579Z,101081.16
2022-08-17T21:33:16.763Z,101092.97
2022-08-17T21:35:47.289Z,101091.19
2022-08-17T21:38:19.478Z,101095.06
2022-08-17T21:40:50.106Z,101087.16
2022-08-17T21:43:25.586Z,101080.84
2022-08-17T21:46:10.816Z,101082.91
2022-08-17T21:48:48.346Z,101078.88
2022-08-17T21:51:19.822Z,101076.09
2022-08-17T21:53:50.571Z,101090.31
2022-08-17T21:56:40.522Z,101099.84
2022-08-17T21:59:27.335Z,101104.84
2022-08-17T22:02:01.228Z,101105.88
2022-08-17T22:04:31.284Z,101094.13
2022-08-17T22:07:01.433Z,101106.25
2022-08-17T22:09:50.060Z,101115.34
2022-08-17T22:12:18.216Z,101112.84
2022-08-17T22:14:55.381Z,101114.25
2022-08-17T22:17:37.860Z,101101.03
2022-08-17T22:20:20.264Z,101106.09
2022-08-17T22:23:14.619Z,101119.25
2022-08-17T22:26:00.189Z,101120.06
2022-08-17T22:28:40.031Z,101124.06
2022-08-17T22:31:14.579Z,101113.50
2022-08-17T22:33:41.726Z,101126.06
2022-08-17T22:36:47.295Z,101124.22
2022-08-17T22:39:13.977Z,101129.31
2022-08-17T22:41:48.241Z,101131.72
2022-08-17T22:44:29.653Z,101119.00
2022-08-17T22:46:57.901Z,101122.69
2022-08-17T22:49:53.858Z,101125.13
2022-08-17T22:52:29.097Z,101108.16
2022-08-17T22:55:38.776Z,101108.50
2022-08-17T22:58:31.455Z,101116.16
2022-08-17T23:01:27.795Z,101120.78
2022-08-17T23:04:11.649Z,101115.63
2022-08-17T23:06:42.503Z,101116.13
2022-08-17T23:09:09.817Z,101115.63
2022-08-17T23:11:49.267Z,101116.00
2022-08-17T23:14:19.794Z,101110.34
2022-08-17T23:16:48.695Z,101116.25
2022-08-17T23:19:19.677Z,101128.81
2022-08-17T23:21:48.665Z,101125.28
2022-08-17T23:24:21.694Z,101129.88
2022-08-17T23:26:48.597Z,101122.53
2022-08-17T23:29:15.661Z,101118.66
2022-08-17T23:31:45.060Z,101120.84
2022-08-17T23:34:14.594Z,101116.75
2022-08-17T23:36:43.163Z,101119.31
2022-08-17T23:39:09.860Z,101120.56
2022-08-17T23:41:40.061Z,101118.00
2022-08-17T23:44:08.488Z,101120.78
2022-08-17T23:46:38.591Z,101129.72
2022-08-17T23:49:08.176Z,101133.53
2022-08-17T23:51:42.893Z,101134.19
2022-08-17T23:54:21.760Z,101136.31
2022-08-17T23:56:48.458Z,101142.34
2022-08-17T23:59:22.460Z,101142.75
